Time;durP1;ratioP1;P1;durP2;ratioP2;P2;SDS_P1;SDS_P2;PMS_P1;PMS_P2;Temp;Humidity;BMP_temperature;BMP_pressure;BME280_temperature;BME280_humidity;BME280_pressure;Samples;Min_cycle;Max_cycle;Signal;HPM_P1;HPM_P2
2023/01/09 00:01:44;;;;;;;5.23;3.17;;;;;;;4.93;100.00;99039.75;7390824;19;21000;-62
2023/01/09 00:04:13;;;;;;;6.97;4.00;;;;;;;4.97;100.00;99036.53;7394689;19;20396;-62
2023/01/09 00:06:49;;;;;;;4.20;3.10;;;;;;;5.10;100.00;99042.97;7389106;19;20460;-61
2023/01/09 00:09:19;;;;;;;5.73;3.33;;;;;;;5.04;100.00;99039.31;7392344;19;20869;-61
2023/01/09 00:11:49;;;;;;;6.33;4.13;;;;;;;5.17;100.00;99038.06;7390687;19;20439;-60
2023/01/09 00:14:19;;;;;;;4.60;3.00;;;;;;;5.11;100.00;99031.91;7393893;19;20419;-61
2023/01/09 00:16:51;;;;;;;6.20;3.57;;;;;;;5.23;100.00;99033.19;7389544;19;20438;-61
2023/01/09 00:19:21;;;;;;;5.90;3.20;;;;;;;5.33;100.00;99029.25;7394090;19;20446;-61
2023/01/09 00:21:51;;;;;;;4.83;3.33;;;;;;;5.24;100.00;99022.13;7395925;19;20443;-61
2023/01/09 00:24:20;;;;;;;7.07;3.47;;;;;;;5.21;100.00;99033.13;7401021;19;20402;-61
2023/01/09 00:26:49;;;;;;;5.13;3.63;;;;;;;5.18;100.00;99035.53;7398005;19;20438;-61
2023/01/09 00:29:19;;;;;;;5.47;3.93;;;;;;;5.21;100.00;99035.69;7398753;19;20443;-61
2023/01/09 00:31:51;;;;;;;6.73;3.30;;;;;;;5.20;100.00;99038.16;7397336;19;20442;-61
2023/01/09 00:34:21;;;;;;;6.10;3.70;;;;;;;5.32;100.00;99033.50;7399734;19;20391;-61
2023/01/09 00:36:53;;;;;;;4.50;3.50;;;;;;;5.27;100.00;99041.00;7396925;19;20435;-61
2023/01/09 00:39:23;;;;;;;5.60;3.70;;;;;;;5.27;100.00;99047.78;7398011;19;21156;-60
2023/01/09 00:41:57;;;;;;;8.70;3.53;;;;;;;5.27;100.00;99045.25;7393536;19;20431;-61
2023/01/09 00:44:30;;;;;;;5.40;3.00;;;;;;;5.25;100.00;99046.88;7397662;19;20402;-62
2023/01/09 00:47:07;;;;;;;5.57;3.57;;;;;;;5.25;100.00;99052.88;7392503;19;20439;-61
2023/01/09 00:49:37;;;;;;;9.83;3.53;;;;;;;5.25;100.00;99052.88;7393444;19;20426;-61
2023/01/09 00:52:08;;;;;;;3.90;2.80;;;;;;;5.19;100.00;99057.78;7392560;19;20420;-62
2023/01/09 00:54:39;;;;;;;6.10;3.47;;;;;;;5.09;100.00;99055.69;7395822;19;20388;-61
2023/01/09 00:57:08;;;;;;;7.03;3.23;;;;;;;5.11;100.00;99060.03;7392035;19;20793;-60
2023/01/09 00:59:38;;;;;;;6.30;3.40;;;;;;;5.15;100.00;99058.47;7396224;19;20427;-61
2023/01/09 01:02:10;;;;;;;5.27;3.20;;;;;;;5.14;100.00;99062.69;7391778;19;20551;-62
2023/01/09 01:10:05;;;;;;;13.60;3.37;;;;;;;5.03;100.00;99061.44;7392871;19;20434;-59
2023/01/09 01:12:34;;;;;;;4.03;3.20;;;;;;;5.08;100.00;99059.06;7394678;19;20759;-60
2023/01/09 01:15:04;;;;;;;4.33;2.60;;;;;;;4.99;100.00;99060.44;7395261;19;20740;-59
2023/01/09 01:17:38;;;;;;;5.70;3.37;;;;;;;5.13;100.00;99053.28;7393718;19;20789;-61
2023/01/09 01:20:11;;;;;;;4.20;3.27;;;;;;;5.04;100.00;99052.97;7393007;19;20966;-61
2023/01/09 01:22:41;;;;;;;5.27;3.50;;;;;;;4.97;100.00;99051.84;7394033;19;20444;-61
2023/01/09 01:25:11;;;;;;;6.03;3.30;;;;;;;4.82;100.00;99054.72;7392580;19;20754;-61
2023/01/09 01:27:42;;;;;;;5.90;3.20;;;;;;;4.81;100.00;99052.09;7393995;19;20391;-62
2023/01/09 01:30:14;;;;;;;5.70;3.30;;;;;;;4.73;100.00;99051.81;7388580;19;20430;-60
2023/01/09 01:32:46;;;;;;;7.40;3.57;;;;;;;4.76;100.00;99049.38;7398754;19;20415;-61
2023/01/09 01:35:15;;;;;;;4.70;2.90;;;;;;;4.68;100.00;99059.28;7388809;19;20402;-61
2023/01/09 01:37:45;;;;;;;5.97;3.30;;;;;;;4.69;100.00;99052.50;7390366;19;20392;-63
2023/01/09 01:40:15;;;;;;;7.80;5.10;;;;;;;4.69;100.00;99045.72;7389348;19;20360;-61
2023/01/09 01:42:48;;;;;;;6.30;3.80;;;;;;;4.72;100.00;99053.50;7390952;19;20384;-63
2023/01/09 01:45:18;;;;;;;6.80;3.90;;;;;;;4.72;100.00;99048.38;7394003;19;20398;-61
2023/01/09 01:47:55;;;;;;;5.50;3.70;;;;;;;4.77;100.00;99047.69;7390959;19;20415;-62
2023/01/09 01:50:30;;;;;;;8.90;3.60;;;;;;;4.94;100.00;99044.09;7386648;19;20399;-61
2023/01/09 01:53:05;;;;;;;6.10;3.00;;;;;;;4.94;100.00;99041.53;7392046;19;20391;-61
2023/01/09 01:55:36;;;;;;;5.10;3.70;;;;;;;4.85;100.00;99033.50;7388213;19;20936;-60
2023/01/09 01:58:08;;;;;;;5.40;4.00;;;;;;;5.01;100.00;99029.84;7391109;19;21085;-62
2023/01/09 02:00:40;;;;;;;6.03;3.77;;;;;;;5.12;100.00;99025.09;7389610;19;20411;-63
2023/01/09 02:03:12;;;;;;;5.57;3.67;;;;;;;5.17;100.00;99020.19;7391121;19;20756;-62
2023/01/09 02:05:42;;;;;;;6.83;3.60;;;;;;;5.09;100.00;99027.56;7387259;19;20414;-62
2023/01/09 02:08:12;;;;;;;5.70;3.90;;;;;;;5.34;100.00;99024.19;7390931;19;20443;-61
2023/01/09 02:10:42;;;;;;;10.67;3.70;;;;;;;5.25;100.00;99018.75;7388873;19;20403;-61
2023/01/09 02:13:11;;;;;;;4.60;3.27;;;;;;;5.13;100.00;99025.16;7391845;19;20784;-61
2023/01/09 02:15:51;;;;;;;5.07;3.57;;;;;;;5.25;100.00;99032.41;7387692;19;20463;-60
2023/01/09 02:18:40;;;;;;;6.87;3.13;;;;;;;5.24;100.00;99022.97;7393427;19;20434;-61
2023/01/09 02:21:15;;;;;;;6.70;2.80;;;;;;;5.22;100.00;99022.06;7391356;19;20459;-61
2023/01/09 02:24:03;;;;;;;7.30;3.40;;;;;;;5.25;100.00;99017.06;7389646;19;20397;-61
2023/01/09 02:27:17;;;;;;;7.33;2.80;;;;;;;5.33;100.00;99016.47;7386790;19;20958;-61
2023/01/09 02:30:15;;;;;;;6.73;3.10;;;;;;;5.40;100.00;99014.16;7389720;19;20439;-61
2023/01/09 02:32:59;;;;;;;5.53;3.10;;;;;;;5.51;100.00;99009.44;7390255;19;20426;-61
2023/01/09 02:35:36;;;;;;;7.93;3.10;;;;;;;5.36;100.00;99014.00;7389547;19;20427;-60
2023/01/09 02:38:12;;;;;;;5.80;3.30;;;;;;;5.20;100.00;99015.16;7391119;19;20417;-62
2023/01/09 02:40:46;;;;;;;4.27;2.63;;;;;;;5.15;100.00;99020.13;7387317;19;20435;-61
2023/01/09 02:43:16;;;;;;;6.53;4.10;;;;;;;5.18;100.00;99020.22;7388375;19;20406;-62
2023/01/09 02:45:45;;;;;;;6.10;3.93;;;;;;;5.24;100.00;99017.88;7387676;19;20416;-61
2023/01/09 02:48:17;;;;;;;4.97;3.47;;;;;;;5.33;100.00;99017.31;7390176;19;20452;-61
2023/01/09 02:50:52;;;;;;;5.63;3.47;;;;;;;5.42;100.00;99016.78;7391698;19;20398;-62
2023/01/09 02:53:41;;;;;;;4.53;3.13;;;;;;;5.41;100.00;99020.16;7393458;19;20419;-63
2023/01/09 02:56:21;;;;;;;4.77;3.37;;;;;;;5.35;100.00;99022.50;7385817;19;20431;-60
2023/01/09 02:59:13;;;;;;;4.27;3.00;;;;;;;5.30;100.00;99024.03;7394059;19;20964;-61
2023/01/09 03:01:48;;;;;;;4.20;2.80;;;;;;;5.38;100.00;99023.47;7387663;19;20782;-61
2023/01/09 03:04:26;;;;;;;3.73;2.77;;;;;;;5.39;100.00;99021.81;7391276;19;20955;-61
2023/01/09 03:06:59;;;;;;;4.67;2.70;;;;;;;5.44;100.00;99032.19;7388000;19;20422;-61
2023/01/09 03:09:30;;;;;;;4.10;2.90;;;;;;;5.42;100.00;99036.38;7390087;19;20424;-61
2023/01/09 03:12:02;;;;;;;6.20;3.20;;;;;;;5.49;100.00;99041.75;7387673;19;20759;-59
2023/01/09 03:14:33;;;;;;;5.00;2.87;;;;;;;5.45;100.00;99039.91;7390467;19;20745;-60
2023/01/09 03:17:06;;;;;;;5.87;2.93;;;;;;;5.43;100.00;99035.56;7387547;19;20411;-62
2023/01/09 03:19:39;;;;;;;6.03;2.77;;;;;;;5.48;100.00;99041.72;7389491;19;20438;-62
2023/01/09 03:22:09;;;;;;;6.20;3.27;;;;;;;5.51;100.00;99045.25;7387514;19;20424;-60
2023/01/09 03:24:39;;;;;;;3.30;2.33;;;;;;;5.44;100.00;99042.41;7390489;19;20416;-61
2023/01/09 03:27:10;;;;;;;4.47;2.80;;;;;;;5.47;100.00;99047.63;7387713;19;20431;-61
2023/01/09 03:29:39;;;;;;;4.33;2.60;;;;;;;5.49;100.00;99051.97;7388410;19;20428;-61
2023/01/09 03:32:09;;;;;;;5.90;3.10;;;;;;;5.52;100.00;99053.78;7386971;19;20423;-63
2023/01/09 03:34:41;;;;;;;4.20;3.00;;;;;;;5.46;100.00;99045.88;7390794;19;20715;-61
2023/01/09 03:37:10;;;;;;;4.97;2.63;;;;;;;5.60;100.00;99049.81;7385829;19;20438;-61
2023/01/09 03:39:39;;;;;;;3.50;2.60;;;;;;;5.44;100.00;99048.38;7392232;19;21019;-61
2023/01/09 03:42:09;;;;;;;3.73;2.80;;;;;;;5.49;100.00;99046.88;7385556;19;20419;-60
2023/01/09 03:44:38;;;;;;;11.60;3.77;;;;;;;5.52;100.00;99039.31;7389736;19;20496;-60
2023/01/09 03:47:08;;;;;;;3.80;3.03;;;;;;;5.58;100.00;99035.22;7386076;19;20407;-59
2023/01/09 03:49:37;;;;;;;8.77;3.17;;;;;;;5.58;100.00;99036.09;7387775;19;20975;-61
2023/01/09 03:52:12;;;;;;;3.53;2.90;;;;;;;5.57;100.00;99038.56;7385070;19;20433;-60
2023/01/09 03:54:41;;;;;;;6.10;3.10;;;;;;;5.56;100.00;99031.72;7393943;19;20392;-63
2023/01/09 03:57:10;;;;;;;6.60;3.20;;;;;;;5.54;100.00;99032.56;7391191;19;20414;-62
2023/01/09 03:59:40;;;;;;;7.77;3.20;;;;;;;5.52;100.00;99023.06;7394615;19;20419;-60
2023/01/09 04:02:10;;;;;;;6.93;3.33;;;;;;;5.64;100.00;99031.19;7393254;19;20791;-61
2023/01/09 04:04:40;;;;;;;4.63;3.13;;;;;;;5.39;100.00;99034.59;7396665;19;20389;-61
2023/01/09 04:07:12;;;;;;;3.83;2.60;;;;;;;5.39;100.00;99029.47;7393123;19;20419;-61
2023/01/09 04:09:41;;;;;;;5.80;3.20;;;;;;;5.38;100.00;99025.16;7394531;19;20775;-60
2023/01/09 04:12:11;;;;;;;3.80;2.90;;;;;;;5.46;100.00;99025.44;7389233;19;21008;-60
2023/01/09 04:14:40;;;;;;;4.80;2.90;;;;;;;5.48;100.00;99019.53;7396162;19;20953;-61
2023/01/09 04:17:10;;;;;;;6.73;3.10;;;;;;;5.44;100.00;99015.13;7392065;19;20410;-61
2023/01/09 04:19:39;;;;;;;3.70;2.87;;;;;;;5.51;100.00;99014.56;7394266;19;20458;-62
2023/01/09 04:22:11;;;;;;;5.60;3.17;;;;;;;5.69;100.00;99010.84;7394786;19;20447;-59
2023/01/09 04:24:41;;;;;;;5.93;3.07;;;;;;;5.55;100.00;99007.84;7395969;19;20377;-61
2023/01/09 04:27:11;;;;;;;3.60;2.63;;;;;;;5.48;100.00;98998.22;7392412;19;20418;-61
2023/01/09 04:29:40;;;;;;;4.10;2.57;;;;;;;5.46;100.00;98997.28;7393888;19;20801;-60
2023/01/09 04:32:10;;;;;;;4.50;2.90;;;;;;;5.39;100.00;99011.56;7390833;19;20445;-62
2023/01/09 04:34:39;;;;;;;4.40;2.80;;;;;;;5.41;100.00;99004.81;7395602;19;20391;-61
2023/01/09 04:37:11;;;;;;;5.37;2.60;;;;;;;5.71;100.00;98996.44;7390207;19;20408;-60
2023/01/09 04:39:42;;;;;;;6.40;3.23;;;;;;;6.01;100.00;98995.66;7393881;19;20461;-60
2023/01/09 04:42:11;;;;;;;5.33;3.17;;;;;;;6.05;100.00;98987.31;7391160;19;20432;-62
2023/01/09 04:44:41;;;;;;;7.60;3.37;;;;;;;6.18;100.00;98983.47;7397323;19;21045;-62
2023/01/09 04:47:12;;;;;;;8.47;3.23;;;;;;;6.48;100.00;98982.63;7391358;19;20413;-61
2023/01/09 04:49:41;;;;;;;4.30;3.10;;;;;;;6.30;100.00;98979.53;7393404;19;20419;-63
2023/01/09 04:52:13;;;;;;;5.50;3.27;;;;;;;6.03;100.00;98994.09;7391018;19;20971;-63
2023/01/09 04:54:43;;;;;;;6.43;3.67;;;;;;;6.15;100.00;98987.63;7395303;19;20387;-62
2023/01/09 04:57:12;;;;;;;3.70;2.70;;;;;;;6.33;100.00;98979.63;7392214;19;20438;-62
2023/01/09 04:59:42;;;;;;;5.60;3.60;;;;;;;6.30;100.00;98984.66;7393227;19;20421;-57
2023/01/09 05:02:12;;;;;;;10.10;4.90;;;;;;;6.44;100.00;98982.50;7390552;19;20424;-59
2023/01/09 05:04:41;;;;;;;10.47;4.03;;;;;;;6.37;100.00;98978.00;7394842;19;20391;-61
2023/01/09 05:07:13;;;;;;;7.23;3.87;;;;;;;6.35;100.00;98978.84;7389563;19;20417;-61
2023/01/09 05:09:43;;;;;;;4.13;3.20;;;;;;;6.31;100.00;98971.88;7392743;19;20432;-60
2023/01/09 05:12:13;;;;;;;5.13;3.40;;;;;;;6.24;100.00;98982.75;7392330;19;20448;-60
2023/01/09 05:14:42;;;;;;;7.00;4.37;;;;;;;6.35;100.00;98976.28;7394944;19;20388;-59
2023/01/09 05:17:11;;;;;;;5.63;3.90;;;;;;;6.53;100.00;98975.09;7387041;19;20406;-60
2023/01/09 05:19:41;;;;;;;5.80;3.67;;;;;;;6.50;100.00;98969.88;7392271;19;20422;-60
2023/01/09 05:22:10;;;;;;;9.33;3.90;;;;;;;6.47;100.00;98969.78;7391355;19;20435;-60
2023/01/09 05:24:42;;;;;;;5.30;3.90;;;;;;;6.10;100.00;98984.88;7394387;19;20407;-59
2023/01/09 05:27:12;;;;;;;5.27;3.33;;;;;;;5.93;100.00;98982.66;7386570;19;20407;-56
2023/01/09 05:29:41;;;;;;;6.70;3.70;;;;;;;5.89;100.00;98991.03;7392445;19;21036;-61
2023/01/09 05:32:11;;;;;;;5.60;3.10;;;;;;;5.63;100.00;98988.50;7390357;19;20433;-59
2023/01/09 05:34:40;;;;;;;6.20;3.23;;;;;;;5.37;100.00;99008.06;7393892;19;20986;-59
2023/01/09 05:37:10;;;;;;;4.80;3.37;;;;;;;5.37;100.00;98990.16;7390905;19;20416;-61
2023/01/09 05:39:39;;;;;;;6.20;3.40;;;;;;;5.40;100.00;98972.38;7391931;19;20446;-60
2023/01/09 05:42:11;;;;;;;2.90;1.90;;;;;;;5.24;100.00;98979.50;7390399;19;20428;-61
2023/01/09 05:44:41;;;;;;;5.57;2.60;;;;;;;5.21;100.00;98979.41;7390061;19;20877;-60
2023/01/09 05:47:10;;;;;;;3.10;1.87;;;;;;;5.20;100.00;98977.69;7390283;19;20407;-61
2023/01/09 05:49:39;;;;;;;4.43;1.90;;;;;;;5.16;100.00;98975.81;7391655;19;20848;-60
2023/01/09 05:52:09;;;;;;;3.97;1.70;;;;;;;5.18;100.00;98969.06;7387582;19;20794;-62
2023/01/09 05:54:38;;;;;;;2.47;1.60;;;;;;;5.14;100.00;98968.09;7392530;19;20403;-60
2023/01/09 05:57:10;;;;;;;3.20;2.10;;;;;;;5.17;100.00;98963.94;7388884;19;20426;-62
2023/01/09 05:59:40;;;;;;;2.90;1.87;;;;;;;5.17;100.00;98967.34;7391733;19;20438;-62
2023/01/09 06:02:09;;;;;;;2.60;1.80;;;;;;;5.14;100.00;98967.25;7390926;19;20403;-60
2023/01/09 06:04:39;;;;;;;2.70;1.77;;;;;;;5.14;100.00;98969.81;7392990;19;20379;-59
2023/01/09 06:07:08;;;;;;;2.60;1.80;;;;;;;5.10;100.00;98965.38;7389313;19;20415;-60
2023/01/09 06:09:38;;;;;;;3.33;2.37;;;;;;;5.11;100.00;98962.88;7391685;19;20451;-59
2023/01/09 06:12:10;;;;;;;3.30;1.80;;;;;;;5.10;100.00;98965.38;7389625;19;20634;-62
2023/01/09 06:14:40;;;;;;;3.90;2.40;;;;;;;5.12;100.00;98969.72;7394354;19;20395;-60
2023/01/09 06:17:09;;;;;;;2.77;1.80;;;;;;;5.10;100.00;98968.81;7392543;19;20447;-60
2023/01/09 06:19:41;;;;;;;8.47;4.60;;;;;;;5.12;100.00;98973.97;7394494;19;20428;-60
2023/01/09 06:22:10;;;;;;;6.30;3.73;;;;;;;5.12;100.00;98976.53;7392323;19;20473;-60
2023/01/09 06:24:40;;;;;;;8.20;5.40;;;;;;;5.09;100.00;98973.88;7391342;19;20397;-57
2023/01/09 06:27:12;;;;;;;3.47;2.30;;;;;;;5.13;100.00;98975.72;7390372;19;20523;-58
2023/01/09 06:29:42;;;;;;;2.63;1.87;;;;;;;5.12;100.00;98974.84;7394307;19;20963;-60
2023/01/09 06:32:11;;;;;;;7.30;3.97;;;;;;;5.13;100.00;98980.84;7389521;19;20439;-60
2023/01/09 06:34:41;;;;;;;10.47;4.80;;;;;;;5.13;100.00;98978.28;7393780;19;20401;-59
2023/01/09 06:37:10;;;;;;;15.10;6.70;;;;;;;5.07;100.00;98990.84;7386849;19;20427;-60
2023/01/09 06:39:39;;;;;;;2.80;2.20;;;;;;;5.06;100.00;98986.53;7390980;19;20434;-60
2023/01/09 06:42:11;;;;;;;2.57;2.20;;;;;;;5.08;100.00;98995.16;7389729;19;20415;-60
2023/01/09 06:44:41;;;;;;;6.53;3.77;;;;;;;5.09;100.00;99002.00;7396445;19;20403;-60
2023/01/09 06:47:10;;;;;;;3.43;2.47;;;;;;;5.09;100.00;98999.44;7386315;19;20782;-60
2023/01/09 06:49:40;;;;;;;4.10;2.90;;;;;;;5.11;100.00;98997.81;7390464;19;20763;-60
2023/01/09 06:52:09;;;;;;;4.70;3.13;;;;;;;5.19;100.00;99001.53;7387991;19;20403;-60
2023/01/09 06:54:39;;;;;;;4.13;2.50;;;;;;;5.23;100.00;99003.34;7391627;19;20710;-60
2023/01/09 06:57:13;;;;;;;6.03;3.50;;;;;;;5.23;100.00;99007.59;7387354;19;20419;-60
2023/01/09 06:59:42;;;;;;;7.20;3.10;;;;;;;5.22;100.00;99004.16;7392710;19;20959;-59
2023/01/09 07:02:16;;;;;;;6.13;3.30;;;;;;;5.23;100.00;99013.56;7386997;19;20420;-59
2023/01/09 07:04:46;;;;;;;4.27;2.87;;;;;;;5.23;100.00;99016.13;7391654;19;20396;-60
2023/01/09 07:07:18;;;;;;;6.50;3.53;;;;;;;5.24;100.00;99017.88;7389854;19;20427;-60
2023/01/09 07:09:47;;;;;;;4.80;3.47;;;;;;;5.24;100.00;99025.53;7389371;19;20421;-60
2023/01/09 07:12:19;;;;;;;9.50;3.93;;;;;;;5.26;100.00;99028.16;7387933;19;20432;-59
2023/01/09 07:14:49;;;;;;;5.03;3.40;;;;;;;5.27;100.00;99029.91;7391281;19;20388;-59
2023/01/09 07:17:18;;;;;;;4.90;3.67;;;;;;;5.23;100.00;99044.25;7388812;19;20443;-59
2023/01/09 07:19:48;;;;;;;5.70;3.57;;;;;;;5.24;100.00;99051.13;7389699;19;20459;-59
2023/01/09 07:22:17;;;;;;;11.97;6.70;;;;;;;5.25;100.00;99052.00;7387473;19;20817;-60
2023/01/09 07:24:47;;;;;;;6.30;4.40;;;;;;;5.21;100.00;99057.81;7391002;19;20423;-60
2023/01/09 07:27:16;;;;;;;5.03;3.50;;;;;;;5.14;100.00;99072.94;7387637;19;20409;-61
2023/01/09 07:29:50;;;;;;;6.70;3.87;;;;;;;5.09;100.00;99078.69;7393537;19;20427;-61
2023/01/09 07:32:19;;;;;;;9.43;4.63;;;;;;;5.09;100.00;99081.25;7396289;19;20433;-60
2023/01/09 07:34:50;;;;;;;8.87;4.90;;;;;;;5.09;100.00;99087.22;7401106;19;20404;-61
2023/01/09 07:37:19;;;;;;;33.03;11.33;;;;;;;5.05;100.00;99095.59;7395908;19;20443;-60
2023/01/09 07:39:49;;;;;;;7.23;4.27;;;;;;;5.03;100.00;99088.69;7395723;19;20435;-61
2023/01/09 07:42:18;;;;;;;6.37;4.23;;;;;;;5.02;100.00;99086.94;7399828;19;20810;-60
2023/01/09 07:44:51;;;;;;;36.27;12.80;;;;;;;5.03;100.00;99093.81;7398238;19;20399;-59
2023/01/09 07:47:20;;;;;;;13.17;5.10;;;;;;;5.03;100.00;99092.09;7394601;19;20424;-61
2023/01/09 07:49:49;;;;;;;7.47;4.43;;;;;;;5.00;100.00;99107.34;7395767;19;20470;-61
2023/01/09 07:52:19;;;;;;;17.93;9.17;;;;;;;5.02;100.00;99108.25;7395573;19;20415;-59
2023/01/09 07:54:48;;;;;;;8.67;5.30;;;;;;;4.91;100.00;99118.09;7394211;19;20408;-62
2023/01/09 07:57:18;;;;;;;10.40;5.73;;;;;;;5.03;100.00;99111.69;7390053;19;20498;-61
2023/01/09 07:59:48;;;;;;;11.53;6.90;;;;;;;4.99;100.00;99116.69;7393839;19;20427;-62
2023/01/09 08:02:19;;;;;;;10.33;6.10;;;;;;;4.96;100.00;99111.47;7389532;19;20430;-60
2023/01/09 08:04:49;;;;;;;11.13;7.33;;;;;;;4.97;100.00;99115.75;7395956;19;20918;-60
2023/01/09 08:07:18;;;;;;;10.30;5.60;;;;;;;4.88;100.00;99127.31;7389833;19;20439;-60
2023/01/09 08:09:48;;;;;;;10.03;6.50;;;;;;;4.87;100.00;99126.44;7392770;19;20427;-59
2023/01/09 08:12:17;;;;;;;13.67;7.83;;;;;;;4.89;100.00;99129.94;7393050;19;20415;-60
2023/01/09 08:14:47;;;;;;;11.67;7.33;;;;;;;4.82;100.00;99139.03;7393497;19;20751;-57
2023/01/09 08:17:16;;;;;;;13.70;7.80;;;;;;;4.85;100.00;99140.84;7392293;19;20434;-60
2023/01/09 08:19:48;;;;;;;11.67;6.60;;;;;;;4.84;100.00;99140.00;7395685;19;20439;-60
2023/01/09 08:22:18;;;;;;;15.07;7.90;;;;;;;4.91;100.00;99142.78;7389227;19;20450;-60
2023/01/09 08:24:47;;;;;;;17.20;9.07;;;;;;;4.86;100.00;99138.34;7395360;19;20950;-60
2023/01/09 08:27:16;;;;;;;13.37;7.20;;;;;;;4.83;100.00;99134.81;7392466;19;21215;-61
2023/01/09 08:29:46;;;;;;;10.50;6.20;;;;;;;4.84;100.00;99146.78;7394114;19;20411;-61
2023/01/09 08:32:15;;;;;;;10.67;6.80;;;;;;;4.79;100.00;99154.28;7390800;19;20418;-62
2023/01/09 08:34:47;;;;;;;14.73;7.67;;;;;;;4.76;100.00;99163.50;7393563;19;20387;-60
2023/01/09 08:37:17;;;;;;;13.60;7.67;;;;;;;4.74;100.00;99176.22;7393406;19;20429;-56
2023/01/09 08:39:46;;;;;;;13.40;8.40;;;;;;;4.78;100.00;99172.97;7394044;19;20423;-59
2023/01/09 08:47:40;;;;;;;15.13;7.73;;;;;;;4.71;100.00;99192.28;7393549;19;20411;-60
2023/01/09 08:50:13;;;;;;;18.13;8.50;;;;;;;4.68;100.00;99189.59;7390489;19;20423;-61
2023/01/09 08:52:42;;;;;;;14.67;7.87;;;;;;;4.67;100.00;99189.56;7394989;19;20743;-60
2023/01/09 08:55:12;;;;;;;22.00;8.77;;;;;;;4.70;100.00;99195.66;7389472;19;20407;-58
2023/01/09 08:57:49;;;;;;;19.83;8.40;;;;;;;4.72;100.00;99204.25;7394035;19;20387;-60
2023/01/09 09:00:19;;;;;;;16.30;8.23;;;;;;;4.66;100.00;99213.38;7389500;19;20987;-58
2023/01/09 09:02:53;;;;;;;18.30;9.83;;;;;;;4.68;100.00;99222.81;7395342;19;20438;-61
2023/01/09 09:05:26;;;;;;;19.97;9.27;;;;;;;4.71;100.00;99229.72;7393198;19;20754;-60
2023/01/09 09:07:57;;;;;;;19.43;8.60;;;;;;;4.72;100.00;99240.03;7395631;19;21275;-62
2023/01/09 09:10:28;;;;;;;20.23;8.17;;;;;;;4.73;100.00;99241.75;7390329;19;20427;-61
2023/01/09 09:12:59;;;;;;;27.03;9.50;;;;;;;4.78;100.00;99248.75;7395827;19;20398;-58
2023/01/09 09:15:30;;;;;;;21.20;9.27;;;;;;;4.81;100.00;99259.97;7390836;19;20765;-62
2023/01/09 09:18:00;;;;;;;18.47;8.23;;;;;;;4.86;100.00;99257.59;7395041;19;20720;-62
2023/01/09 09:20:35;;;;;;;20.63;9.10;;;;;;;4.83;100.00;99257.47;7389114;19;20419;-58
2023/01/09 09:23:04;;;;;;;21.90;8.90;;;;;;;4.86;100.00;99265.25;7395117;19;20398;-59
2023/01/09 09:25:34;;;;;;;13.87;6.90;;;;;;;4.86;100.00;99267.81;7392273;19;20757;-61
2023/01/09 09:28:03;;;;;;;18.30;8.03;;;;;;;4.86;100.00;99278.94;7393814;19;20374;-59
2023/01/09 09:30:33;;;;;;;29.83;10.00;;;;;;;4.89;100.00;99280.75;7392472;19;20406;-56
2023/01/09 09:33:04;;;;;;;19.90;9.60;;;;;;;4.97;100.00;99297.25;7394418;19;20447;-56
2023/01/09 09:35:36;;;;;;;19.87;8.80;;;;;;;4.94;100.00;99293.69;7389363;19;20383;-59
2023/01/09 09:38:06;;;;;;;21.10;10.57;;;;;;;4.96;100.00;99300.63;7392735;19;20395;-59
2023/01/09 09:40:48;;;;;;;19.40;9.07;;;;;;;4.97;100.00;99312.59;7387700;19;20983;-60
2023/01/09 09:46:36;;;;;;;22.13;8.93;;;;;;;4.83;100.00;99324.78;7391793;19;20818;-63
2023/01/09 09:49:13;;;;;;;17.97;9.20;;;;;;;4.87;100.00;99325.78;7395258;19;20442;-61
2023/01/09 09:52:02;;;;;;;26.83;11.80;;;;;;;4.88;100.00;99332.69;7391456;19;21210;-57
2023/01/09 09:54:36;;;;;;;18.67;9.53;;;;;;;4.82;100.00;99338.38;7394786;19;20416;-58
2023/01/09 09:57:07;;;;;;;23.87;12.37;;;;;;;4.83;100.00;99342.69;7389775;19;20446;-59
2023/01/09 09:59:38;;;;;;;20.83;10.03;;;;;;;4.85;100.00;99347.88;7394968;19;20502;-59
2023/01/09 10:02:22;;;;;;;16.80;8.50;;;;;;;4.80;100.00;99352.78;7391995;19;20772;-61
2023/01/09 10:04:57;;;;;;;18.87;8.20;;;;;;;4.78;100.00;99356.09;7395192;19;20500;-61
2023/01/09 10:07:33;;;;;;;17.70;8.40;;;;;;;4.79;100.00;99368.03;7389626;19;20834;-60
2023/01/09 10:10:05;;;;;;;20.27;8.83;;;;;;;4.83;100.00;99370.78;7395341;19;20435;-60
2023/01/09 10:12:39;;;;;;;17.53;8.50;;;;;;;4.80;100.00;99370.69;7395374;19;20521;-60
2023/01/09 10:15:21;;;;;;;14.73;8.70;;;;;;;4.84;100.00;99371.69;7392453;19;20415;-61
2023/01/09 10:17:58;;;;;;;9.23;4.43;;;;;;;4.80;100.00;99375.78;7395743;19;21061;-59
2023/01/09 10:20:54;;;;;;;16.30;5.87;;;;;;;4.73;100.00;99379.75;7392848;19;20391;-60
2023/01/09 10:23:46;;;;;;;13.73;7.60;;;;;;;4.71;100.00;99391.59;7395351;19;20823;-58
2023/01/09 10:26:21;;;;;;;19.20;6.93;;;;;;;4.72;100.00;99393.34;7391859;19;20443;-60
2023/01/09 10:29:17;;;;;;;11.47;5.00;;;;;;;4.70;100.00;99405.19;7395096;19;20459;-59
2023/01/09 10:31:53;;;;;;;19.03;9.87;;;;;;;4.77;100.00;99418.22;7390671;19;20470;-61
2023/01/09 10:34:32;;;;;;;6.60;3.63;;;;;;;4.68;100.00;99427.22;7395621;19;20967;-63
2023/01/09 10:37:07;;;;;;;12.43;5.67;;;;;;;4.66;100.00;99438.22;7392784;19;20486;-61
2023/01/09 10:39:43;;;;;;;14.53;7.17;;;;;;;4.72;100.00;99435.91;7393683;19;20435;-61
2023/01/09 10:42:18;;;;;;;16.63;7.87;;;;;;;4.71;100.00;99432.47;7392121;19;20442;-62
2023/01/09 10:44:55;;;;;;;23.07;6.73;;;;;;;4.65;100.00;99432.22;7394958;19;20419;-59
2023/01/09 10:47:28;;;;;;;15.97;6.90;;;;;;;4.60;100.00;99433.69;7389829;19;20438;-62
2023/01/09 10:49:58;;;;;;;17.80;7.07;;;;;;;4.63;100.00;99444.06;7391679;19;20439;-59
2023/01/09 10:52:31;;;;;;;18.40;7.97;;;;;;;4.56;100.00;99454.81;7390867;19;21066;-62
2023/01/09 10:55:14;;;;;;;18.93;7.37;;;;;;;4.56;100.00;99457.38;7391617;19;20411;-61
2023/01/09 10:57:45;;;;;;;15.73;5.90;;;;;;;4.57;100.00;99456.56;7391966;19;20439;-61
2023/01/09 11:00:20;;;;;;;15.13;8.23;;;;;;;4.65;100.00;99460.31;7389159;19;20423;-58
2023/01/09 11:02:53;;;;;;;9.70;3.60;;;;;;;4.65;100.00;99467.09;7393512;19;20471;-62
2023/01/09 11:05:26;;;;;;;12.10;5.50;;;;;;;4.66;100.00;99473.97;7389829;19;20435;-59
2023/01/09 11:08:00;;;;;;;6.57;4.00;;;;;;;4.55;100.00;99468.34;7394943;19;20364;-59
2023/01/09 11:10:47;;;;;;;9.80;4.60;;;;;;;4.61;100.00;99476.31;7390469;19;20435;-62
2023/01/09 11:13:21;;;;;;;22.57;5.00;;;;;;;4.61;100.00;99473.75;7392490;19;20781;-60
2023/01/09 11:16:09;;;;;;;17.10;5.80;;;;;;;4.65;100.00;99487.53;7389131;19;20438;-62
2023/01/09 11:18:41;;;;;;;6.43;2.97;;;;;;;4.58;100.00;99486.41;7392229;19;20427;-62
2023/01/09 11:21:29;;;;;;;18.60;5.00;;;;;;;4.62;100.00;99487.41;7389960;19;20443;-62
2023/01/09 11:24:26;;;;;;;11.33;5.20;;;;;;;4.67;100.00;99496.16;7393556;19;20782;-61
2023/01/09 11:27:25;;;;;;;11.10;4.60;;;;;;;4.67;100.00;99491.06;7388631;19;20438;-62
2023/01/09 11:30:18;;;;;;;17.57;5.60;;;;;;;4.80;100.00;99492.47;7390965;19;20961;-61
2023/01/09 11:32:49;;;;;;;9.60;5.37;;;;;;;4.83;100.00;99482.41;7389356;19;20510;-61
2023/01/09 11:35:22;;;;;;;15.97;6.50;;;;;;;4.89;100.00;99485.22;7386550;19;20404;-61
2023/01/09 11:38:01;;;;;;;23.50;5.63;;;;;;;4.92;100.00;99493.00;7394529;19;20396;-63
2023/01/09 11:40:35;;;;;;;18.13;5.63;;;;;;;5.03;100.00;99490.06;7385864;19;20409;-61
2023/01/09 11:43:20;;;;;;;12.30;4.97;;;;;;;5.12;100.00;99493.00;7392808;19;20745;-60
2023/01/09 11:45:52;;;;;;;13.57;4.90;;;;;;;5.22;100.00;99491.72;7387786;19;20407;-61
2023/01/09 11:48:34;;;;;;;10.50;5.27;;;;;;;5.37;100.00;99489.84;7389774;19;20497;-62
2023/01/09 11:51:06;;;;;;;13.37;5.20;;;;;;;5.49;100.00;99494.59;7388096;19;20418;-61
2023/01/09 11:54:02;;;;;;;17.47;6.13;;;;;;;5.49;100.00;99497.13;7390813;19;20384;-60
2023/01/09 11:56:32;;;;;;;10.00;3.87;;;;;;;5.34;100.00;99494.81;7386173;19;20460;-61
2023/01/09 11:59:04;;;;;;;16.40;4.17;;;;;;;5.34;100.00;99510.16;7389221;19;20445;-63
2023/01/09 12:02:06;;;;;;;14.93;4.90;;;;;;;5.48;100.00;99505.63;7386884;19;20418;-61
2023/01/09 12:04:37;;;;;;;11.87;5.30;;;;;;;5.53;100.00;99499.03;7390047;19;20383;-61
2023/01/09 12:07:20;;;;;;;12.17;4.90;;;;;;;5.60;100.00;99505.28;7386993;19;20407;-62
2023/01/09 12:09:59;;;;;;;18.27;5.40;;;;;;;5.73;100.00;99496.41;7388334;19;21256;-60